createdAt,value
2018-08-22T00:02:46.516Z,85.59
2018-08-22T00:05:15.541Z,86.02
2018-08-22T00:07:44.613Z,84.61
2018-08-22T00:10:13.681Z,87.73
2018-08-22T00:12:42.785Z,86.95
2018-08-22T00:15:11.859Z,87.90
2018-08-22T00:17:40.901Z,87.77
2018-08-22T00:20:10.057Z,87.89
2018-08-22T00:22:39.118Z,90.46
2018-08-22T00:25:08.161Z,91.25
2018-08-22T00:27:37.246Z,89.56
2018-08-22T00:30:06.490Z,88.93
2018-08-22T00:32:35.563Z,86.94
2018-08-22T00:35:04.608Z,88.81
2018-08-22T00:37:33.666Z,87.68
2018-08-22T00:42:38.527Z,90.19
2018-08-22T00:45:07.581Z,89.19
2018-08-22T00:55:29.143Z,91.03
2018-08-22T01:00:34.033Z,87.26
2018-08-22T01:03:03.708Z,86.63
2018-08-22T01:05:32.765Z,89.87
2018-08-22T01:08:01.826Z,90.89
2018-08-22T01:10:30.881Z,91.79
2018-08-22T01:12:59.938Z,90.94
2018-08-22T01:15:28.997Z,91.64
2018-08-22T01:17:58.051Z,90.59
2018-08-22T01:23:02.957Z,88.74
2018-08-22T01:25:32.129Z,89.91
2018-08-22T01:28:01.169Z,90.23
2018-08-22T01:30:30.223Z,92.61
2018-08-22T01:32:59.264Z,93.41
2018-08-22T01:35:28.329Z,92.29
2018-08-22T01:37:57.380Z,92.71
2018-08-22T01:40:26.450Z,92.51
2018-08-22T01:42:55.512Z,91.24
2018-08-22T01:45:24.601Z,91.53
2018-08-22T01:50:29.448Z,88.76
2018-08-22T01:55:34.309Z,90.82
2018-08-22T01:58:03.386Z,89.96
2018-08-22T02:00:33.378Z,93.16
2018-08-22T02:05:38.162Z,90.18
2018-08-22T02:08:07.221Z,88.67
2018-08-22T02:14:08.573Z,89.56
2018-08-22T02:16:37.634Z,94.19
2018-08-22T02:19:06.683Z,96.13
2018-08-22T02:21:35.741Z,95.99
2018-08-22T02:24:04.839Z,91.63
2018-08-22T02:26:33.904Z,90.34
2018-08-22T02:29:02.967Z,90.08
2018-08-22T02:34:07.787Z,92.66
2018-08-22T02:36:36.854Z,93.55
2018-08-22T02:39:06.855Z,91.10
2018-08-22T02:41:35.917Z,91.25
2018-08-22T02:44:04.982Z,93.55
2018-08-22T02:46:34.039Z,93.92
2018-08-22T02:49:04.057Z,95.16
2018-08-22T02:51:33.112Z,96.13
2018-08-22T02:54:02.189Z,97.80
2018-08-22T02:56:31.266Z,96.90
2018-08-22T02:59:00.362Z,97.54
2018-08-22T03:01:29.434Z,97.01
2018-08-22T03:03:58.489Z,97.19
2018-08-22T03:11:39.129Z,93.79
2018-08-22T03:14:08.185Z,94.55
2018-08-22T03:19:14.031Z,95.94
2018-08-22T03:26:54.542Z,92.33
2018-08-22T03:29:23.617Z,95.47
2018-08-22T03:31:52.682Z,96.23
2018-08-22T03:34:21.723Z,93.35
2018-08-22T03:42:02.377Z,93.08
2018-08-22T03:44:31.425Z,94.27
2018-08-22T03:49:36.210Z,93.57
2018-08-22T03:57:16.813Z,96.04
2018-08-22T04:04:58.418Z,95.08
2018-08-22T04:07:27.478Z,96.08
2018-08-22T04:09:56.554Z,95.96
2018-08-22T04:12:25.610Z,96.64
2018-08-22T04:17:30.379Z,96.20
2018-08-22T04:19:59.449Z,96.34
2018-08-22T04:25:04.222Z,94.68
2018-08-22T04:27:33.277Z,95.70
2018-08-22T04:30:02.455Z,95.15
2018-08-22T04:32:31.505Z,94.02
2018-08-22T04:35:00.593Z,94.47
2018-08-22T04:40:05.391Z,94.00
2018-08-22T04:47:46.045Z,92.46
2018-08-22T04:50:15.159Z,93.32
2018-08-22T04:57:55.698Z,92.58
2018-08-22T05:00:24.955Z,93.67
2018-08-22T05:05:29.730Z,93.47
2018-08-22T05:10:34.590Z,94.28
2018-08-22T05:13:03.649Z,95.21
2018-08-22T05:18:08.432Z,94.30
2018-08-22T05:20:37.535Z,92.49
2018-08-22T05:23:06.556Z,94.58
2018-08-22T05:25:35.612Z,94.42
2018-08-22T05:28:04.657Z,94.49
2018-08-22T05:30:33.737Z,93.50
2018-08-22T05:33:02.799Z,91.72
2018-08-22T05:38:07.598Z,89.72
2018-08-22T05:40:36.712Z,89.22
2018-08-22T05:43:05.742Z,89.55
2018-08-22T05:45:34.790Z,89.64
2018-08-22T05:48:03.930Z,89.12
2018-08-22T05:50:32.989Z,88.70
2018-08-22T05:53:02.068Z,89.47
2018-08-22T05:55:31.101Z,89.38
2018-08-22T05:58:00.176Z,91.11
2018-08-22T06:00:30.191Z,91.29
2018-08-22T06:02:59.225Z,91.06
2018-08-22T06:05:28.294Z,90.48
2018-08-22T06:07:57.374Z,89.49
2018-08-22T06:10:27.394Z,88.60
2018-08-22T06:12:56.452Z,87.96
2018-08-22T06:15:25.537Z,87.25
2018-08-22T06:17:55.560Z,87.30
2018-08-22T06:20:24.648Z,86.46
2018-08-22T06:22:53.722Z,86.28
2018-08-22T06:25:25.322Z,85.80
2018-08-22T06:27:58.578Z,85.19
2018-08-22T06:33:06.590Z,82.78
2018-08-22T06:35:35.617Z,82.91
2018-08-22T06:38:05.602Z,83.78
2018-08-22T06:40:34.653Z,83.39
2018-08-22T06:43:03.721Z,82.77
2018-08-22T06:45:32.786Z,83.02
2018-08-22T06:48:01.843Z,81.83
2018-08-22T06:50:30.898Z,80.40
2018-08-22T06:53:00.202Z,80.65
2018-08-22T06:55:30.222Z,79.16
2018-08-22T06:57:59.321Z,77.88
2018-08-22T07:00:28.368Z,77.83
2018-08-22T07:02:58.441Z,78.06
2018-08-22T07:05:27.493Z,76.62
2018-08-22T07:07:56.614Z,75.83
2018-08-22T07:13:01.423Z,76.97
2018-08-22T07:15:30.470Z,74.49
2018-08-22T07:17:59.564Z,75.58
2018-08-22T07:20:28.625Z,75.71
2018-08-22T07:22:57.693Z,73.11
2018-08-22T07:28:02.569Z,72.83
2018-08-22T07:30:33.829Z,69.36
2018-08-22T07:33:02.911Z,68.32
2018-08-22T07:35:31.993Z,68.97
2018-08-22T07:40:36.868Z,69.74
2018-08-22T07:43:07.167Z,65.53
2018-08-22T07:45:36.290Z,66.56
2018-08-22T07:48:05.365Z,66.68
2018-08-22T07:50:34.609Z,67.14
2018-08-22T07:53:03.668Z,66.13
2018-08-22T08:00:45.400Z,63.97
2018-08-22T08:03:14.450Z,63.86
2018-08-22T08:05:43.551Z,63.86
2018-08-22T08:08:12.885Z,63.13
2018-08-22T08:10:41.943Z,63.90
2018-08-22T08:13:11.008Z,61.66
2018-08-22T08:15:40.085Z,63.36
2018-08-22T08:18:09.476Z,61.62
2018-08-22T08:20:38.645Z,61.46
2018-08-22T08:23:07.723Z,56.95
2018-08-22T08:25:37.262Z,58.21
2018-08-22T08:28:06.347Z,54.58
2018-08-22T08:30:35.451Z,55.63
2018-08-22T08:33:04.787Z,57.71
2018-08-22T08:35:33.837Z,54.20
2018-08-22T08:38:02.907Z,57.43
2018-08-22T08:43:07.822Z,55.17
2018-08-22T08:45:37.157Z,54.12
2018-08-22T08:50:42.341Z,52.57
2018-08-22T08:53:11.389Z,52.07
2018-08-22T08:55:40.439Z,48.61
2018-08-22T09:00:45.202Z,47.48
2018-08-22T09:03:15.106Z,45.66
2018-08-22T09:05:49.587Z,45.48
2018-08-22T09:10:54.404Z,39.99
2018-08-22T09:13:24.593Z,40.33
2018-08-22T09:15:53.652Z,39.90
2018-08-22T09:18:22.737Z,33.67
2018-08-22T09:20:52.713Z,32.34
2018-08-22T09:23:21.766Z,35.73
2018-08-22T09:25:50.869Z,31.60
2018-08-22T09:30:56.796Z,31.89
2018-08-22T09:33:25.889Z,32.23
2018-08-22T09:35:54.926Z,26.88
2018-08-22T09:38:23.985Z,32.38
2018-08-22T09:40:53.025Z,28.71
2018-08-22T09:43:22.155Z,26.96
2018-08-22T09:45:51.137Z,24.88
2018-08-22T09:48:20.235Z,27.73
2018-08-22T09:50:49.295Z,26.16
2018-08-22T09:53:18.334Z,20.95
2018-08-22T09:55:48.420Z,24.82
2018-08-22T09:58:17.563Z,24.68
2018-08-22T10:00:46.584Z,28.47
2018-08-22T10:03:15.598Z,23.30
2018-08-22T10:05:44.656Z,24.96
2018-08-22T10:08:13.798Z,26.85
2018-08-22T10:10:43.808Z,27.62
2018-08-22T10:13:12.870Z,27.56
2018-08-22T10:15:42.221Z,23.96
2018-08-22T10:18:11.319Z,25.83
2018-08-22T10:20:40.381Z,25.23
2018-08-22T10:23:09.565Z,25.27
2018-08-22T10:25:38.629Z,24.52
2018-08-22T10:30:43.410Z,25.05
2018-08-22T10:33:12.462Z,23.60
2018-08-22T10:35:41.522Z,21.02
2018-08-22T10:38:10.573Z,21.20
2018-08-22T10:43:15.335Z,24.32
2018-08-22T10:45:44.429Z,22.69
2018-08-22T10:48:13.476Z,21.48
2018-08-22T10:50:42.598Z,18.36
2018-08-22T10:53:11.576Z,22.28
2018-08-22T10:55:40.655Z,19.46
2018-08-22T10:58:09.707Z,19.53
2018-08-22T11:00:38.758Z,21.77
2018-08-22T11:03:07.829Z,23.65
2018-08-22T11:05:37.063Z,21.51
2018-08-22T11:08:06.124Z,22.66
2018-08-22T11:10:35.175Z,23.25
2018-08-22T11:13:04.518Z,20.32
2018-08-22T11:18:09.529Z,19.94
2018-08-22T11:20:38.585Z,18.40
2018-08-22T11:23:25.732Z,18.72
2018-08-22T11:26:13.865Z,20.43
2018-08-22T11:31:36.691Z,18.39
2018-08-22T11:34:23.502Z,18.90
2018-08-22T11:36:52.606Z,21.81
2018-08-22T11:39:21.668Z,25.37
2018-08-22T11:41:50.950Z,24.25
2018-08-22T11:44:20.100Z,22.66
2018-08-22T11:49:25.084Z,22.70
2018-08-22T11:51:54.130Z,25.93
2018-08-22T11:54:23.190Z,26.36
2018-08-22T11:56:52.255Z,27.03
2018-08-22T11:59:21.330Z,24.49
2018-08-22T12:01:50.446Z,23.91
2018-08-22T12:04:19.678Z,19.07
2018-08-22T12:06:48.745Z,19.23
2018-08-22T12:11:53.503Z,20.98
2018-08-22T12:14:22.567Z,18.93
2018-08-22T12:16:51.790Z,20.35
2018-08-22T12:21:57.066Z,23.37
2018-08-22T12:27:01.975Z,19.06
2018-08-22T12:29:31.070Z,19.25
2018-08-22T12:32:00.318Z,20.16
2018-08-22T12:34:29.703Z,19.45
2018-08-22T12:36:59.727Z,19.44
2018-08-22T12:39:28.767Z,20.01
2018-08-22T12:41:57.888Z,20.04
2018-08-22T12:44:26.956Z,20.00
2018-08-22T12:49:31.696Z,17.97
2018-08-22T12:52:01.600Z,17.60
2018-08-22T12:54:30.825Z,18.26
2018-08-22T12:56:59.878Z,18.90
2018-08-22T12:59:28.942Z,20.71
2018-08-22T13:01:58.312Z,23.57
2018-08-22T13:04:27.374Z,24.84
2018-08-22T13:06:57.406Z,26.17
2018-08-22T13:09:26.471Z,27.03
2018-08-22T13:11:56.522Z,22.31
2018-08-22T13:14:25.592Z,22.20
2018-08-22T13:16:54.646Z,19.48
2018-08-22T13:19:23.692Z,20.33
2018-08-22T13:21:53.742Z,20.33
2018-08-22T13:24:22.810Z,20.69
2018-08-22T13:26:51.878Z,20.82
2018-08-22T13:29:20.963Z,19.63
2018-08-22T13:31:50.020Z,19.16
2018-08-22T13:34:19.069Z,19.10
2018-08-22T13:39:23.819Z,18.97
2018-08-22T13:44:28.897Z,20.29
2018-08-22T13:46:57.961Z,19.60
2018-08-22T13:49:27.047Z,19.24
2018-08-22T13:51:56.126Z,18.00
2018-08-22T13:54:29.442Z,17.24
2018-08-22T13:56:58.750Z,16.02
2018-08-22T13:59:29.793Z,17.36
2018-08-22T14:01:58.854Z,16.42
2018-08-22T14:04:27.909Z,18.53
2018-08-22T14:06:56.975Z,18.25
2018-08-22T14:09:26.022Z,20.16
2018-08-22T14:11:55.090Z,18.78
2018-08-22T14:14:24.154Z,20.49
2018-08-22T14:16:53.209Z,20.90
2018-08-22T14:19:22.513Z,21.51
2018-08-22T14:21:51.573Z,20.79
2018-08-22T14:24:20.657Z,23.52
2018-08-22T14:26:49.714Z,22.58
2018-08-22T14:29:18.787Z,21.04
2018-08-22T14:31:47.842Z,20.55
2018-08-22T14:34:16.886Z,20.08
2018-08-22T14:36:45.968Z,18.36
2018-08-22T14:39:15.015Z,21.68
2018-08-22T14:44:19.756Z,20.16
2018-08-22T14:46:48.845Z,18.01
2018-08-22T14:49:17.901Z,17.94
2018-08-22T14:51:46.942Z,19.34
2018-08-22T14:54:16.004Z,19.85
2018-08-22T14:56:45.058Z,20.50
2018-08-22T14:59:14.151Z,20.38
2018-08-22T15:04:18.889Z,18.48
2018-08-22T15:06:47.958Z,18.64
2018-08-22T15:09:17.998Z,18.46
2018-08-22T15:11:47.050Z,17.44
2018-08-22T15:14:16.116Z,20.85
2018-08-22T15:16:45.178Z,21.02
2018-08-22T15:19:14.241Z,18.97
2018-08-22T15:21:43.297Z,20.35
2018-08-22T15:24:12.350Z,21.48
2018-08-22T15:26:42.849Z,22.73
2018-08-22T15:29:11.904Z,21.67
2018-08-22T15:31:40.961Z,22.33
2018-08-22T15:34:10.229Z,21.60
2018-08-22T15:36:39.267Z,20.05
2018-08-22T15:39:08.306Z,19.31
2018-08-22T15:41:37.681Z,19.01
2018-08-22T15:44:06.781Z,19.08
2018-08-22T15:46:35.821Z,19.08
2018-08-22T15:49:05.086Z,19.17
2018-08-22T15:51:34.227Z,19.13
2018-08-22T15:54:03.319Z,22.32
2018-08-22T15:56:32.368Z,20.52
2018-08-22T15:59:01.439Z,24.73
2018-08-22T16:01:30.486Z,24.76
2018-08-22T16:03:59.938Z,23.51
2018-08-22T16:06:29.933Z,26.15
2018-08-22T16:08:59.973Z,23.42
2018-08-22T16:11:29.973Z,24.44
2018-08-22T16:13:59.061Z,25.71
2018-08-22T16:16:28.102Z,26.28
2018-08-22T16:18:58.097Z,29.10
2018-08-22T16:21:27.149Z,30.44
2018-08-22T16:23:56.497Z,31.13
2018-08-22T16:26:25.562Z,32.46
2018-08-22T16:28:54.610Z,31.43
2018-08-22T16:33:59.382Z,30.78
2018-08-22T16:36:28.624Z,31.87
2018-08-22T16:38:57.679Z,32.77
2018-08-22T16:44:02.529Z,32.85
2018-08-22T16:49:07.384Z,32.87
2018-08-22T16:51:36.507Z,32.48
2018-08-22T16:54:05.562Z,35.05
2018-08-22T16:56:34.625Z,34.79
2018-08-22T16:59:03.681Z,35.43
2018-08-22T17:01:32.731Z,35.40
2018-08-22T17:04:04.190Z,34.37
2018-08-22T17:06:33.237Z,33.60
2018-08-22T17:11:38.087Z,35.71
2018-08-22T17:16:42.935Z,35.51
2018-08-22T17:19:12.001Z,35.04
2018-08-22T17:21:41.080Z,35.19
2018-08-22T17:26:45.989Z,37.03
2018-08-22T17:29:15.365Z,36.60
2018-08-22T17:34:20.370Z,39.24
2018-08-22T17:36:49.421Z,39.31
2018-08-22T17:39:18.479Z,39.81
2018-08-22T17:41:47.536Z,39.22
2018-08-22T17:44:18.545Z,39.92
2018-08-22T17:46:48.692Z,39.56
2018-08-22T17:49:17.746Z,39.50
2018-08-22T17:51:46.781Z,40.14
2018-08-22T17:54:17.909Z,41.31
2018-08-22T17:56:46.937Z,41.14
2018-08-22T17:59:16.967Z,42.54
2018-08-22T18:01:46.011Z,42.56
2018-08-22T18:04:15.080Z,42.45
2018-08-22T18:09:19.928Z,42.96
2018-08-22T18:11:49.001Z,42.43
2018-08-22T18:14:18.094Z,44.72
2018-08-22T18:16:47.138Z,44.21
2018-08-22T18:21:51.990Z,46.08
2018-08-22T18:24:21.038Z,50.47
2018-08-22T18:26:50.088Z,49.01
2018-08-22T18:29:19.202Z,49.99
2018-08-22T18:31:48.253Z,51.47
2018-08-22T18:34:17.311Z,52.31
2018-08-22T18:36:46.362Z,50.36
2018-08-22T18:39:15.406Z,49.00
2018-08-22T18:41:44.476Z,50.66
2018-08-22T18:44:15.473Z,52.23
2018-08-22T18:51:56.533Z,52.73
2018-08-22T18:54:25.592Z,52.30
2018-08-22T18:59:30.464Z,54.17
2018-08-22T19:01:59.536Z,52.46
2018-08-22T19:09:40.236Z,53.45
2018-08-22T19:12:09.254Z,52.58
2018-08-22T19:14:39.258Z,55.21
2018-08-22T19:17:08.305Z,54.22
2018-08-22T19:19:37.357Z,56.52
2018-08-22T19:22:07.322Z,57.75
2018-08-22T19:24:36.359Z,56.30
2018-08-22T19:27:05.418Z,59.56
2018-08-22T19:29:34.477Z,58.16
2018-08-22T19:32:03.537Z,57.31
2018-08-22T19:34:32.579Z,57.50
2018-08-22T19:37:01.664Z,57.28
2018-08-22T19:42:07.391Z,56.47
2018-08-22T19:44:36.514Z,55.59
2018-08-22T19:49:41.347Z,62.10
2018-08-22T19:52:11.429Z,60.06
2018-08-22T19:57:16.207Z,63.46
2018-08-22T19:59:45.263Z,61.23
2018-08-22T20:02:14.317Z,62.79
2018-08-22T20:04:43.396Z,65.94
2018-08-22T20:09:48.044Z,67.58
2018-08-22T20:12:17.090Z,68.77
2018-08-22T20:14:47.176Z,68.71
2018-08-22T20:19:52.034Z,68.35
2018-08-22T20:22:21.129Z,67.06
2018-08-22T20:24:50.227Z,66.06
2018-08-22T20:27:19.336Z,64.28
2018-08-22T20:29:48.398Z,67.49
2018-08-22T20:32:17.476Z,64.21
2018-08-22T20:34:46.545Z,66.60
2018-08-22T20:37:15.684Z,69.36
2018-08-22T20:39:44.890Z,67.19
2018-08-22T20:42:13.878Z,68.23
2018-08-22T20:44:42.935Z,69.76
2018-08-22T20:47:11.987Z,70.96
2018-08-22T20:49:41.047Z,68.28
2018-08-22T20:54:45.847Z,68.85
2018-08-22T20:57:14.935Z,68.04
2018-08-22T21:02:19.820Z,68.70
2018-08-22T21:07:24.605Z,70.43
2018-08-22T21:09:54.186Z,69.80
2018-08-22T21:12:25.193Z,71.03
2018-08-22T21:14:54.230Z,70.12
2018-08-22T21:17:23.451Z,70.17
2018-08-22T21:19:52.491Z,69.20
2018-08-22T21:24:57.455Z,68.15
2018-08-22T21:27:26.428Z,67.52
2018-08-22T21:29:56.444Z,69.47
2018-08-22T21:32:25.528Z,70.38
2018-08-22T21:37:30.814Z,68.81
2018-08-22T21:40:00.813Z,69.24
2018-08-22T21:42:31.030Z,72.03
2018-08-22T21:47:35.825Z,71.97
2018-08-22T21:50:05.017Z,70.50
2018-08-22T21:52:34.071Z,71.54
2018-08-22T21:55:03.278Z,75.32
2018-08-22T21:57:32.212Z,72.39
2018-08-22T22:00:01.523Z,73.82
2018-08-22T22:02:30.566Z,74.19
2018-08-22T22:04:59.693Z,75.92
2018-08-22T22:07:29.788Z,74.57
2018-08-22T22:09:58.875Z,74.41
2018-08-22T22:12:27.971Z,75.40
2018-08-22T22:14:57.023Z,74.00
2018-08-22T22:17:27.198Z,72.67
2018-08-22T22:19:57.935Z,71.57
2018-08-22T22:22:26.998Z,72.52
2018-08-22T22:24:56.047Z,71.23
2018-08-22T22:27:26.059Z,71.39
2018-08-22T22:32:30.913Z,71.90
2018-08-22T22:34:59.974Z,73.54
2018-08-22T22:37:29.037Z,76.89
2018-08-22T22:42:33.839Z,77.09
2018-08-22T22:45:02.961Z,76.62
2018-08-22T22:47:32.042Z,74.76
2018-08-22T22:50:01.102Z,77.86
2018-08-22T22:52:30.173Z,81.34
2018-08-22T22:54:59.237Z,82.92
2018-08-22T22:57:28.302Z,83.90
2018-08-22T22:59:57.420Z,84.49
2018-08-22T23:02:26.469Z,82.63
2018-08-22T23:04:55.529Z,83.72
2018-08-22T23:10:00.374Z,82.54
2018-08-22T23:15:05.228Z,79.37
2018-08-22T23:20:10.986Z,79.02
2018-08-22T23:22:40.043Z,80.15
2018-08-22T23:25:10.157Z,80.12
2018-08-22T23:27:39.186Z,81.38
2018-08-22T23:30:08.237Z,84.28
2018-08-22T23:32:37.289Z,81.88
2018-08-22T23:35:26.061Z,83.44
2018-08-22T23:37:55.118Z,81.91
2018-08-22T23:40:24.201Z,79.81
2018-08-22T23:42:53.233Z,80.16
2018-08-22T23:45:22.294Z,83.04
2018-08-22T23:47:51.340Z,83.29
2018-08-22T23:50:20.400Z,81.11
2018-08-22T23:52:49.456Z,82.93
2018-08-22T23:55:18.500Z,79.60
2018-08-22T23:57:47.573Z,81.40
